Terminal Aerodrome Forecast
Issued by NWS Twin Cities, MN

Home | Current Version | Previous Version | Graphics & Text | Print | Product List | Glossary On
Versions: 1 2 3 4 5 6 7 8 9 10 11 12 13 14 15 16
000
FTUS43 KMPX 250520
TAFSTC
TAF
KSTC 250520Z 2506/2606 05005KT 3SM -DZ BR OVC007
      TEMPO 2508/2510 OVC004
     FM251000 02003KT 3SM -DZ BR OVC004
     FM251500 29006KT 4SM BR VCSH OVC007
     FM251800 28004KT 6SM BR OVC015
     FM252300 26009KT P6SM SCT015 OVC030=

USA.gov is the U.S. government's official web portal to all federal, state and local government web resources and services.